Time;durP1;ratioP1;P1;durP2;ratioP2;P2;SDS_P1;SDS_P2;PMS_P1;PMS_P2;Temp;Humidity;BMP_temperature;BMP_pressure;BME280_temperature;BME280_humidity;BME280_pressure;Samples;Min_cycle;Max_cycle;Signal;HPM_P1;HPM_P2
2023/12/19 00:01:01;;;;;;;19.70;12.40;;;;;;;5.41;65.09;98388.03;4914494;28;21567;-78
2023/12/19 00:03:26;;;;;;;21.98;12.93;;;;;;;5.24;65.03;98363.38;4916040;28;20188;-78
2023/12/19 00:05:52;;;;;;;24.50;12.32;;;;;;;5.21;65.62;98356.03;4889042;28;20205;-78
2023/12/19 00:08:17;;;;;;;21.45;11.82;;;;;;;5.25;66.12;98358.03;4893090;28;20186;-78
2023/12/19 00:10:42;;;;;;;23.10;12.85;;;;;;;5.36;66.36;98371.47;4919386;28;20205;-78
2023/12/19 00:13:08;;;;;;;21.20;12.02;;;;;;;5.44;65.16;98369.59;4912255;28;20185;-78
2023/12/19 00:15:33;;;;;;;20.50;11.88;;;;;;;5.31;65.54;98361.69;4897602;28;20163;-78
2023/12/19 00:17:59;;;;;;;19.75;12.05;;;;;;;5.11;65.92;98371.78;4913607;28;20512;-78
2023/12/19 00:20:25;;;;;;;24.08;12.63;;;;;;;5.25;65.60;98376.13;4906119;28;20191;-78
2023/12/19 00:22:51;;;;;;;23.73;12.70;;;;;;;5.24;66.23;98381.47;4895931;28;20030;-78
2023/12/19 00:25:16;;;;;;;21.92;12.20;;;;;;;5.22;65.77;98367.94;4896310;28;20512;-78
2023/12/19 00:27:42;;;;;;;22.85;12.23;;;;;;;5.18;66.18;98351.22;4871912;28;20214;-78
2023/12/19 00:30:07;;;;;;;21.90;12.38;;;;;;;4.91;66.71;98352.66;4910207;28;20324;-77
2023/12/19 00:32:33;;;;;;;23.48;12.00;;;;;;;4.92;67.31;98341.34;4889047;28;20197;-77
2023/12/19 00:34:58;;;;;;;20.63;11.73;;;;;;;4.91;67.51;98340.53;4892782;28;20194;-77
2023/12/19 00:37:23;;;;;;;20.38;11.73;;;;;;;5.02;66.88;98352.19;4878609;28;20022;-78
2023/12/19 00:39:49;;;;;;;18.25;10.82;;;;;;;5.03;67.17;98349.44;4906138;28;20275;-78
2023/12/19 00:42:14;;;;;;;20.67;11.20;;;;;;;5.09;66.62;98332.44;4894446;28;20143;-78
2023/12/19 00:44:39;;;;;;;22.10;12.13;;;;;;;5.02;66.07;98339.28;4908930;28;20111;-77
2023/12/19 00:47:05;;;;;;;23.80;13.05;;;;;;;4.98;66.98;98331.09;4899689;28;20201;-78
2023/12/19 00:49:30;;;;;;;19.50;11.25;;;;;;;5.05;66.96;98316.53;4900224;28;20203;-77
2023/12/19 00:51:58;;;;;;;20.70;11.82;;;;;;;4.94;66.59;98321.34;4907196;28;20166;-77
2023/12/19 00:54:24;;;;;;;18.42;11.35;;;;;;;5.09;66.20;98336.78;4891560;28;20707;-78
2023/12/19 00:56:50;;;;;;;20.80;11.85;;;;;;;5.14;65.81;98348.19;4902726;28;20250;-78
2023/12/19 00:59:16;;;;;;;19.90;10.82;;;;;;;5.14;66.04;98345.63;4908061;28;20173;-77
2023/12/19 01:01:41;;;;;;;19.23;10.73;;;;;;;5.06;65.48;98343.91;4890052;28;21542;-78
2023/12/19 01:04:09;;;;;;;20.75;11.40;;;;;;;5.06;65.48;98351.66;4894840;28;20496;-77
2023/12/19 01:06:35;;;;;;;21.38;12.02;;;;;;;4.96;66.68;98364.03;4886758;28;20136;-77
2023/12/19 01:09:00;;;;;;;19.13;10.80;;;;;;;5.04;66.42;98356.22;4888324;28;20163;-77
2023/12/19 01:11:26;;;;;;;17.60;10.30;;;;;;;5.12;65.63;98363.03;4920574;28;20218;-77
2023/12/19 01:13:51;;;;;;;21.00;12.07;;;;;;;4.97;66.19;98363.06;4885728;28;20245;-77
2023/12/19 01:16:17;;;;;;;18.75;10.32;;;;;;;4.77;66.41;98356.84;4880367;28;20289;-77
2023/12/19 01:18:42;;;;;;;19.52;11.70;;;;;;;4.79;66.60;98352.28;4886216;28;20331;-77
2023/12/19 01:21:07;;;;;;;19.95;10.73;;;;;;;4.90;65.71;98349.28;4883155;28;20327;-78
2023/12/19 01:23:33;;;;;;;19.13;11.18;;;;;;;4.86;66.15;98346.22;4903356;28;20275;-77
2023/12/19 01:25:59;;;;;;;19.15;10.23;;;;;;;4.76;66.50;98347.50;4873312;28;20201;-77
2023/12/19 01:28:24;;;;;;;18.33;9.93;;;;;;;4.61;66.13;98339.72;4896449;28;20761;-77
2023/12/19 01:30:50;;;;;;;19.30;10.23;;;;;;;4.76;66.09;98343.13;4916881;28;20200;-77
2023/12/19 01:33:15;;;;;;;18.08;10.15;;;;;;;4.43;66.17;98342.66;4889760;28;20699;-78
2023/12/19 01:35:41;;;;;;;18.38;9.80;;;;;;;4.37;67.11;98340.78;4903596;28;20293;-77
2023/12/19 01:38:06;;;;;;;17.63;9.93;;;;;;;4.37;67.60;98335.63;4901220;28;20592;-77
2023/12/19 01:40:31;;;;;;;17.23;10.15;;;;;;;4.58;67.01;98335.75;4910885;28;20636;-78
2023/12/19 01:42:58;;;;;;;16.35;9.82;;;;;;;4.57;66.81;98344.44;4890719;28;20197;-77
2023/12/19 01:45:26;;;;;;;17.73;8.82;;;;;;;4.57;66.73;98338.50;4891427;28;20201;-78
2023/12/19 01:47:52;;;;;;;16.00;8.90;;;;;;;4.36;66.26;98344.34;4919340;28;20715;-78
2023/12/19 01:50:17;;;;;;;15.93;8.70;;;;;;;4.42;66.43;98365.06;4909376;28;20349;-77
2023/12/19 01:52:49;;;;;;;17.23;8.85;;;;;;;4.53;66.02;98386.25;4905370;28;20248;-78
2023/12/19 01:55:15;;;;;;;16.25;8.95;;;;;;;4.52;65.96;98382.84;4887196;28;20932;-78
2023/12/19 01:57:40;;;;;;;18.98;8.77;;;;;;;4.46;65.50;98379.22;4908163;28;20270;-77
2023/12/19 02:00:07;;;;;;;18.13;9.45;;;;;;;4.42;66.45;98367.66;4893765;28;20269;-79
2023/12/19 02:02:35;;;;;;;19.77;10.63;;;;;;;4.29;66.26;98336.50;4918763;28;20157;-77
2023/12/19 02:05:00;;;;;;;18.38;9.80;;;;;;;4.10;66.47;98345.53;4892323;28;20651;-77
2023/12/19 02:07:26;;;;;;;19.27;10.32;;;;;;;4.32;66.89;98329.22;4882190;28;20196;-78
2023/12/19 02:09:52;;;;;;;20.38;9.63;;;;;;;4.35;66.04;98319.53;4891791;28;20340;-77
2023/12/19 02:12:17;;;;;;;17.98;8.65;;;;;;;4.37;66.05;98314.97;4906875;28;20279;-77
2023/12/19 02:14:43;;;;;;;16.55;9.32;;;;;;;4.17;66.86;98300.03;4902200;28;20309;-78
2023/12/19 02:17:11;;;;;;;18.25;8.95;;;;;;;4.31;66.87;98306.19;4901001;28;20183;-78
2023/12/19 02:19:44;;;;;;;18.65;9.60;;;;;;;4.46;66.06;98298.47;4911434;28;20194;-77
2023/12/19 02:22:10;;;;;;;18.38;8.80;;;;;;;4.49;65.48;98304.06;4905994;28;20141;-79
2023/12/19 02:24:36;;;;;;;16.73;9.00;;;;;;;4.50;66.39;98320.34;4904085;28;20840;-79
2023/12/19 02:27:01;;;;;;;21.27;9.38;;;;;;;4.57;65.74;98308.34;4922451;28;20321;-80
2023/12/19 02:29:27;;;;;;;16.95;9.63;;;;;;;4.60;65.06;98318.31;4871025;28;20206;-80
2023/12/19 02:31:52;;;;;;;18.63;9.50;;;;;;;4.54;66.06;98319.03;4912789;28;20193;-79
2023/12/19 02:34:17;;;;;;;21.85;9.65;;;;;;;4.47;66.46;98334.41;4901540;28;20205;-80
2023/12/19 02:36:43;;;;;;;18.70;9.50;;;;;;;4.40;65.76;98332.69;4905117;28;20064;-79
2023/12/19 02:39:10;;;;;;;17.20;10.32;;;;;;;4.43;65.54;98322.81;4903253;28;20171;-79
2023/12/19 02:41:35;;;;;;;20.15;9.40;;;;;;;4.14;67.17;98310.69;4899933;28;20357;-79
2023/12/19 02:44:01;;;;;;;19.50;9.45;;;;;;;4.42;65.92;98310.09;4926098;28;20199;-79
2023/12/19 02:46:26;;;;;;;21.45;9.85;;;;;;;4.34;65.88;98313.56;4912439;28;20673;-80
2023/12/19 02:48:51;;;;;;;18.13;9.70;;;;;;;4.42;65.38;98304.94;4888954;28;20297;-80
2023/12/19 02:51:20;;;;;;;20.95;10.63;;;;;;;4.41;65.82;98318.84;4916451;28;20289;-79
2023/12/19 02:53:46;;;;;;;19.48;9.25;;;;;;;4.34;65.39;98312.78;4909198;28;20655;-78
2023/12/19 02:56:11;;;;;;;18.05;9.23;;;;;;;4.27;65.69;98334.09;4872825;28;20253;-79
2023/12/19 02:58:37;;;;;;;22.88;9.55;;;;;;;4.29;65.08;98344.25;4913788;28;20367;-80
2023/12/19 03:01:06;;;;;;;19.80;9.68;;;;;;;4.29;65.69;98333.94;4917389;28;20315;-79
2023/12/19 03:03:31;;;;;;;19.20;9.43;;;;;;;4.24;65.43;98318.97;4908723;28;20283;-79
2023/12/19 03:05:57;;;;;;;19.65;9.95;;;;;;;4.28;66.43;98307.34;4917447;28;20248;-79
2023/12/19 03:08:22;;;;;;;20.58;10.98;;;;;;;4.27;65.44;98298.00;4886219;28;20172;-79
2023/12/19 03:10:48;;;;;;;17.75;9.88;;;;;;;4.30;65.06;98292.50;4920714;28;20175;-79
2023/12/19 03:13:13;;;;;;;20.38;10.38;;;;;;;4.36;65.46;98285.03;4907345;28;20206;-79
2023/12/19 03:15:38;;;;;;;20.02;10.43;;;;;;;4.39;65.78;98274.38;4889950;28;20300;-79
2023/12/19 03:18:04;;;;;;;19.98;9.88;;;;;;;4.35;66.03;98257.66;4913476;28;20319;-79
2023/12/19 03:20:29;;;;;;;21.25;9.50;;;;;;;4.19;65.26;98263.78;4872942;28;20190;-79
2023/12/19 03:22:54;;;;;;;17.63;9.25;;;;;;;4.22;65.77;98264.22;4906305;28;20524;-77
2023/12/19 03:25:20;;;;;;;17.55;9.73;;;;;;;4.40;65.37;98263.06;4905525;28;20212;-77
2023/12/19 03:27:45;;;;;;;17.48;8.85;;;;;;;4.43;64.73;98249.81;4897955;28;20745;-80
2023/12/19 03:30:11;;;;;;;17.92;8.82;;;;;;;4.43;64.96;98250.63;4919770;28;20305;-79
2023/12/19 03:32:37;;;;;;;19.50;9.63;;;;;;;4.38;64.75;98258.09;4892918;28;20720;-77
2023/12/19 03:35:02;;;;;;;18.02;8.90;;;;;;;4.42;64.65;98253.38;4904797;28;20269;-79
2023/12/19 03:37:28;;;;;;;17.70;9.65;;;;;;;4.31;65.04;98265.72;4897026;28;20698;-79
2023/12/19 03:39:53;;;;;;;17.17;9.23;;;;;;;4.35;64.53;98263.59;4902654;28;20209;-79
2023/12/19 03:42:18;;;;;;;17.15;8.80;;;;;;;4.22;63.64;98256.47;4915985;28;20667;-80
2023/12/19 03:44:44;;;;;;;16.10;8.18;;;;;;;4.13;64.24;98270.44;4903748;28;20679;-79
2023/12/19 03:47:13;;;;;;;16.40;8.65;;;;;;;4.25;64.19;98274.19;4873208;28;20279;-80
2023/12/19 03:49:39;;;;;;;16.67;8.25;;;;;;;4.15;63.81;98283.94;4919991;28;20201;-80
2023/12/19 03:52:04;;;;;;;18.58;9.13;;;;;;;4.04;64.48;98268.91;4904862;28;20670;-80
2023/12/19 03:54:30;;;;;;;14.68;8.25;;;;;;;4.05;64.22;98270.50;4921126;28;20249;-79
2023/12/19 03:56:55;;;;;;;16.52;8.68;;;;;;;4.11;64.26;98260.31;4918603;28;20195;-80
2023/12/19 03:59:21;;;;;;;18.08;9.75;;;;;;;4.07;64.96;98268.56;4890406;28;20251;-79
2023/12/19 04:01:48;;;;;;;15.35;8.32;;;;;;;3.99;64.72;98278.94;4901591;28;20264;-79
2023/12/19 04:04:14;;;;;;;15.02;8.25;;;;;;;4.09;64.33;98269.16;4921336;28;20282;-79
2023/12/19 04:06:43;;;;;;;15.82;8.52;;;;;;;4.04;64.80;98254.22;4877091;28;20272;-79
2023/12/19 04:09:09;;;;;;;16.77;8.00;;;;;;;3.93;65.31;98255.47;4903328;28;20205;-79
2023/12/19 04:11:35;;;;;;;16.67;8.68;;;;;;;3.98;65.04;98242.06;4887080;28;20177;-79
2023/12/19 04:14:00;;;;;;;15.23;7.57;;;;;;;4.10;64.96;98235.50;4904083;28;20246;-79
2023/12/19 04:16:26;;;;;;;17.98;8.68;;;;;;;4.08;64.99;98234.88;4887675;28;20269;-79
2023/12/19 04:18:51;;;;;;;17.55;8.38;;;;;;;3.91;65.63;98229.06;4879481;28;20185;-79
2023/12/19 04:21:16;;;;;;;18.27;8.20;;;;;;;3.82;65.70;98234.47;4907293;28;20721;-79
2023/12/19 04:23:42;;;;;;;15.43;7.80;;;;;;;4.02;64.51;98227.03;4889556;28;20734;-79
2023/12/19 04:26:07;;;;;;;15.23;7.72;;;;;;;3.95;65.00;98232.09;4898784;28;20146;-79
2023/12/19 04:28:32;;;;;;;15.85;8.18;;;;;;;4.01;64.46;98233.16;4917232;28;20266;-79
2023/12/19 04:30:58;;;;;;;16.35;8.07;;;;;;;4.02;65.62;98237.34;4904110;28;20225;-79
2023/12/19 04:33:23;;;;;;;19.73;8.10;;;;;;;4.03;65.35;98228.66;4892275;28;20358;-81
2023/12/19 04:35:49;;;;;;;17.77;9.50;;;;;;;4.00;65.51;98240.09;4926329;28;20323;-80
2023/12/19 04:38:14;;;;;;;18.02;8.95;;;;;;;4.11;64.79;98241.44;4894431;28;20179;-80
2023/12/19 04:40:39;;;;;;;17.83;8.95;;;;;;;4.19;65.20;98243.16;4878244;28;20735;-80
2023/12/19 04:43:05;;;;;;;20.65;9.70;;;;;;;4.04;65.13;98237.97;4925092;28;20210;-80
2023/12/19 04:45:30;;;;;;;17.90;8.90;;;;;;;4.02;64.88;98233.00;4918124;28;20686;-79
2023/12/19 04:47:56;;;;;;;21.15;9.30;;;;;;;3.89;65.25;98236.19;4892450;28;20198;-81
2023/12/19 04:50:21;;;;;;;18.02;9.27;;;;;;;4.00;64.92;98234.16;4880862;28;20831;-81
2023/12/19 04:52:46;;;;;;;18.63;9.30;;;;;;;3.98;64.81;98246.41;4896059;28;20261;-80
2023/12/19 04:55:12;;;;;;;19.05;9.75;;;;;;;3.83;65.94;98236.06;4926236;28;20372;-77
2023/12/19 04:57:37;;;;;;;19.50;10.05;;;;;;;3.84;65.19;98233.34;4915087;28;20193;-81
2023/12/19 05:00:04;;;;;;;20.73;9.93;;;;;;;3.84;65.49;98224.78;4883143;28;20170;-80
2023/12/19 05:02:30;;;;;;;17.02;9.48;;;;;;;3.96;65.20;98217.44;4875017;28;20328;-79
2023/12/19 05:04:55;;;;;;;21.60;10.27;;;;;;;3.71;65.91;98215.09;4911345;28;20284;-80
2023/12/19 05:07:21;;;;;;;20.58;10.30;;;;;;;3.50;66.56;98197.72;4908406;28;20192;-79
2023/12/19 05:09:46;;;;;;;19.02;9.82;;;;;;;3.69;66.47;98199.00;4907721;28;20217;-79
2023/12/19 05:12:12;;;;;;;17.33;8.98;;;;;;;3.71;66.30;98205.56;4907992;28;20387;-79
2023/12/19 05:14:37;;;;;;;18.27;9.38;;;;;;;3.76;65.69;98212.78;4917908;28;20200;-79
2023/12/19 05:17:03;;;;;;;19.60;9.20;;;;;;;3.88;65.71;98203.66;4923189;28;20308;-79
2023/12/19 05:19:29;;;;;;;19.08;9.00;;;;;;;3.91;65.48;98194.78;4898381;28;20308;-79
2023/12/19 05:21:55;;;;;;;20.35;9.70;;;;;;;3.67;65.86;98199.19;4909228;28;20198;-79
2023/12/19 05:24:20;;;;;;;17.88;8.95;;;;;;;3.86;65.46;98200.47;4907696;28;20689;-79
2023/12/19 05:26:46;;;;;;;18.90;8.85;;;;;;;3.94;65.29;98215.84;4927339;28;20532;-79
2023/12/19 05:29:11;;;;;;;17.15;8.80;;;;;;;3.88;65.16;98226.84;4912059;28;20500;-79
2023/12/19 05:31:36;;;;;;;20.33;9.15;;;;;;;3.92;64.91;98207.50;4895769;28;20244;-79
2023/12/19 05:34:03;;;;;;;17.73;8.48;;;;;;;4.06;64.54;98220.56;4890942;28;20284;-79
2023/12/19 05:36:31;;;;;;;20.02;9.13;;;;;;;3.98;64.52;98215.50;4884178;28;20556;-79
2023/12/19 05:38:56;;;;;;;20.95;9.38;;;;;;;4.00;64.26;98234.16;4915744;28;20313;-79
2023/12/19 05:41:24;;;;;;;20.40;9.88;;;;;;;4.03;64.48;98259.59;4874628;28;20295;-78
2023/12/19 05:43:53;;;;;;;16.63;8.77;;;;;;;4.05;64.70;98262.78;4892306;28;20440;-80
2023/12/19 05:46:19;;;;;;;19.60;9.30;;;;;;;3.99;64.53;98266.03;4901773;28;20038;-80
2023/12/19 05:48:44;;;;;;;17.80;8.25;;;;;;;3.98;64.29;98267.03;4882001;28;20529;-80
2023/12/19 05:51:10;;;;;;;18.10;8.93;;;;;;;3.92;64.73;98259.03;4924214;28;20162;-80
2023/12/19 05:53:37;;;;;;;18.52;8.98;;;;;;;3.93;64.53;98265.75;4882186;28;20041;-79
2023/12/19 05:56:04;;;;;;;18.80;8.75;;;;;;;3.67;64.47;98255.84;4876586;28;20216;-80
2023/12/19 05:58:29;;;;;;;19.52;10.10;;;;;;;3.84;65.23;98266.00;4904373;28;20154;-80
2023/12/19 06:00:55;;;;;;;21.45;10.95;;;;;;;3.79;64.86;98260.56;4878832;28;20264;-80
2023/12/19 06:03:21;;;;;;;20.92;9.70;;;;;;;3.73;64.64;98257.72;4909621;28;20728;-79
2023/12/19 06:05:46;;;;;;;21.10;10.52;;;;;;;3.80;64.44;98260.41;4924075;28;20197;-79
2023/12/19 06:08:12;;;;;;;18.33;8.70;;;;;;;3.65;64.55;98259.56;4876577;28;20710;-81
2023/12/19 06:10:37;;;;;;;16.58;9.32;;;;;;;3.51;64.87;98245.66;4903666;28;20703;-80
2023/12/19 06:13:04;;;;;;;18.15;8.38;;;;;;;3.33;65.90;98239.03;4921929;28;20716;-78
2023/12/19 06:15:29;;;;;;;16.92;8.68;;;;;;;3.42;65.87;98242.34;4874181;28;20700;-79
2023/12/19 06:17:54;;;;;;;19.35;9.23;;;;;;;3.50;65.67;98252.59;4906904;28;20103;-79
2023/12/19 06:20:20;;;;;;;15.93;7.85;;;;;;;3.50;65.08;98252.59;4917071;28;20213;-80
2023/12/19 06:22:45;;;;;;;16.02;8.15;;;;;;;3.55;64.76;98246.94;4889598;28;20201;-79
2023/12/19 06:25:11;;;;;;;18.00;8.55;;;;;;;3.72;64.44;98252.75;4906982;28;20238;-79
2023/12/19 06:27:36;;;;;;;15.35;8.35;;;;;;;3.61;65.10;98240.28;4891015;28;20350;-78
2023/12/19 06:30:05;;;;;;;17.05;8.57;;;;;;;3.78;65.67;98239.16;4878674;28;20288;-79
2023/12/19 06:32:31;;;;;;;15.95;8.07;;;;;;;3.60;65.62;98223.22;4879901;28;20324;-80
2023/12/19 06:34:57;;;;;;;16.83;8.38;;;;;;;3.47;65.35;98211.72;4894219;28;20199;-79
2023/12/19 06:37:22;;;;;;;15.02;8.15;;;;;;;3.58;65.39;98210.50;4898181;28;20641;-81
2023/12/19 06:39:48;;;;;;;17.50;8.45;;;;;;;3.40;65.93;98207.47;4915362;28;20222;-79
2023/12/19 06:42:13;;;;;;;16.15;8.48;;;;;;;3.72;65.20;98216.69;4884903;28;20189;-80
2023/12/19 06:44:40;;;;;;;17.70;9.35;;;;;;;3.75;65.38;98221.47;4900793;28;20241;-80
2023/12/19 06:47:05;;;;;;;19.95;9.57;;;;;;;3.64;65.48;98206.47;4928085;28;20240;-79
2023/12/19 06:49:30;;;;;;;19.33;8.98;;;;;;;3.78;65.39;98210.84;4937618;28;20046;-79
2023/12/19 06:51:56;;;;;;;20.77;9.18;;;;;;;3.77;65.10;98216.97;4890541;28;20291;-80
2023/12/19 06:54:22;;;;;;;22.17;9.95;;;;;;;3.81;65.70;98207.91;4906897;28;20201;-79
2023/12/19 06:56:47;;;;;;;18.25;9.35;;;;;;;3.73;65.29;98213.13;4872572;28;20356;-79
2023/12/19 06:59:14;;;;;;;16.40;8.95;;;;;;;3.91;64.87;98223.13;4913609;28;20285;-80
2023/12/19 07:01:39;;;;;;;16.55;8.65;;;;;;;3.82;65.10;98219.84;4895424;28;20611;-80
2023/12/19 07:04:05;;;;;;;20.63;10.18;;;;;;;3.69;65.65;98222.97;4892191;28;20254;-80
2023/12/19 07:06:30;;;;;;;18.55;8.90;;;;;;;3.61;66.06;98222.25;4913774;28;20026;-80
2023/12/19 07:08:56;;;;;;;20.23;9.57;;;;;;;3.65;65.57;98211.44;4894780;28;20110;-79
2023/12/19 07:11:21;;;;;;;19.52;10.50;;;;;;;3.62;66.26;98201.47;4908931;28;20237;-79
2023/12/19 07:13:46;;;;;;;20.45;9.30;;;;;;;3.62;65.99;98192.97;4910945;28;20660;-81
2023/12/19 07:16:14;;;;;;;19.67;9.68;;;;;;;3.65;66.13;98190.00;4922920;28;20171;-81
2023/12/19 07:18:40;;;;;;;18.83;9.02;;;;;;;3.56;65.90;98190.09;4899926;28;20279;-79
2023/12/19 07:21:06;;;;;;;16.92;8.82;;;;;;;3.53;66.47;98179.34;4894756;28;20224;-79
2023/12/19 07:23:32;;;;;;;20.00;9.63;;;;;;;3.52;66.11;98172.59;4886979;28;20583;-79
2023/12/19 07:25:57;;;;;;;20.35;9.85;;;;;;;3.75;66.37;98178.50;4886855;28;20159;-79
2023/12/19 07:28:23;;;;;;;17.10;8.63;;;;;;;3.74;66.42;98173.53;4891149;28;20297;-79
2023/12/19 07:30:49;;;;;;;20.63;9.00;;;;;;;3.70;66.06;98167.13;4909236;28;20639;-77
2023/12/19 07:33:14;;;;;;;19.65;9.52;;;;;;;3.67;66.18;98159.75;4917457;28;20200;-79
2023/12/19 07:35:40;;;;;;;20.58;9.27;;;;;;;3.71;66.27;98164.38;4898080;28;20216;-79
2023/12/19 07:38:06;;;;;;;18.27;8.20;;;;;;;3.56;66.08;98155.81;4887229;28;20107;-79
2023/12/19 07:40:31;;;;;;;20.60;9.38;;;;;;;3.74;65.36;98173.53;4886443;28;20206;-78
2023/12/19 07:42:58;;;;;;;18.00;9.27;;;;;;;3.57;66.61;98170.31;4918039;28;20220;-78
2023/12/19 07:45:24;;;;;;;19.23;8.68;;;;;;;3.62;66.79;98175.72;4880648;28;20174;-79
2023/12/19 07:47:51;;;;;;;19.50;8.82;;;;;;;3.63;66.34;98171.38;4888984;28;20248;-79
2023/12/19 07:50:17;;;;;;;16.08;7.50;;;;;;;3.74;66.77;98170.97;4887654;28;20210;-79
2023/12/19 07:52:42;;;;;;;17.15;8.32;;;;;;;3.55;67.28;98167.91;4899838;28;20827;-79
2023/12/19 07:55:10;;;;;;;17.50;8.18;;;;;;;3.62;66.75;98167.22;4891256;28;20258;-79
2023/12/19 07:57:38;;;;;;;17.17;7.50;;;;;;;3.72;66.27;98158.25;4916151;28;20186;-78
2023/12/19 08:00:05;;;;;;;17.55;8.52;;;;;;;3.53;67.05;98174.19;4898145;28;20188;-78
2023/12/19 08:02:32;;;;;;;15.20;6.45;;;;;;;3.63;67.53;98173.94;4901366;28;20186;-78
2023/12/19 08:04:58;;;;;;;15.10;7.28;;;;;;;3.79;66.42;98160.09;4901388;28;20085;-79
2023/12/19 08:07:23;;;;;;;17.90;7.30;;;;;;;3.78;66.06;98159.31;4898969;28;20283;-79
2023/12/19 08:09:49;;;;;;;13.40;6.45;;;;;;;3.71;67.19;98161.00;4941739;28;20074;-79
2023/12/19 08:12:14;;;;;;;14.35;6.90;;;;;;;3.85;66.90;98155.06;4911488;28;20205;-79
2023/12/19 08:14:40;;;;;;;15.70;7.07;;;;;;;3.90;67.00;98162.25;4891201;28;20266;-79
2023/12/19 08:17:05;;;;;;;13.70;6.15;;;;;;;3.65;67.73;98172.81;4911954;28;20252;-79
2023/12/19 08:19:31;;;;;;;14.02;6.65;;;;;;;3.77;66.92;98156.91;4914195;28;20188;-79
2023/12/19 08:21:58;;;;;;;13.35;5.43;;;;;;;3.83;66.88;98157.00;4903339;28;20192;-79
2023/12/19 08:24:25;;;;;;;12.68;6.13;;;;;;;3.95;66.53;98152.22;4878812;28;20283;-79
2023/12/19 08:26:51;;;;;;;14.32;6.38;;;;;;;3.97;67.26;98157.19;4912731;28;20232;-78
2023/12/19 08:29:17;;;;;;;14.38;5.80;;;;;;;4.04;66.01;98151.16;4941811;28;20741;-79
2023/12/19 08:31:44;;;;;;;12.25;5.57;;;;;;;4.11;66.17;98154.63;4935123;28;20278;-78
2023/12/19 08:34:09;;;;;;;10.68;5.55;;;;;;;3.84;67.04;98166.34;4923328;28;20221;-79
2023/12/19 08:36:34;;;;;;;12.18;6.18;;;;;;;4.07;66.60;98181.72;4913524;28;20225;-79
2023/12/19 08:39:00;;;;;;;12.50;5.90;;;;;;;4.16;66.60;98179.06;4922149;28;20193;-79
2023/12/19 08:41:25;;;;;;;11.10;5.88;;;;;;;4.22;65.87;98174.00;4890858;28;20644;-79
2023/12/19 08:43:54;;;;;;;11.68;5.55;;;;;;;4.10;67.10;98157.38;4889353;28;20595;-79
2023/12/19 08:46:20;;;;;;;14.18;6.38;;;;;;;4.26;66.25;98146.88;4922199;28;20196;-79
2023/12/19 08:48:47;;;;;;;15.10;7.32;;;;;;;4.29;65.53;98143.16;4916010;28;20208;-79
2023/12/19 08:51:13;;;;;;;15.50;7.30;;;;;;;4.17;66.43;98142.81;4906505;28;20188;-79
2023/12/19 08:53:38;;;;;;;15.30;6.63;;;;;;;4.26;66.47;98133.97;4916065;28;20152;-79
2023/12/19 08:56:04;;;;;;;13.10;7.07;;;;;;;4.09;66.97;98141.09;4910189;28;20212;-79
2023/12/19 08:58:30;;;;;;;12.80;7.03;;;;;;;4.26;66.45;98128.03;4915753;28;20233;-79
2023/12/19 09:00:56;;;;;;;14.35;7.13;;;;;;;4.38;66.63;98128.38;4899758;28;20281;-79
2023/12/19 09:03:21;;;;;;;13.75;6.50;;;;;;;4.22;67.29;98122.44;4920074;28;20374;-79
2023/12/19 09:05:47;;;;;;;12.80;7.00;;;;;;;4.20;67.12;98121.00;4907351;28;20325;-79
2023/12/19 09:08:13;;;;;;;11.32;6.35;;;;;;;4.22;66.57;98108.75;4882228;28;20241;-78
2023/12/19 09:10:38;;;;;;;13.32;6.60;;;;;;;4.35;66.67;98118.41;4926417;28;20230;-79
2023/12/19 09:13:05;;;;;;;13.48;6.75;;;;;;;4.23;66.81;98118.09;4924562;28;20536;-80
2023/12/19 09:15:30;;;;;;;14.77;7.65;;;;;;;4.28;67.38;98113.19;4899950;28;20281;-78
2023/12/19 09:17:55;;;;;;;13.02;7.05;;;;;;;4.05;67.57;98118.47;4925810;28;20358;-79
2023/12/19 09:20:23;;;;;;;12.90;6.30;;;;;;;4.10;68.03;98121.31;4914873;28;20174;-78
2023/12/19 09:22:50;;;;;;;14.48;6.72;;;;;;;4.29;67.00;98125.91;4915558;28;20129;-79
2023/12/19 09:25:15;;;;;;;13.15;7.28;;;;;;;4.20;66.87;98119.25;4915829;28;20672;-79
2023/12/19 09:27:42;;;;;;;12.77;6.80;;;;;;;4.53;66.35;98131.72;4904971;28;20120;-79
2023/12/19 09:30:09;;;;;;;14.60;6.65;;;;;;;4.36;67.02;98136.28;4930900;28;20295;-80
2023/12/19 09:32:36;;;;;;;12.45;6.75;;;;;;;4.02;68.28;98136.84;4902157;28;20712;-78
2023/12/19 09:35:01;;;;;;;13.40;7.22;;;;;;;4.23;67.17;98146.44;4894334;28;20378;-79
2023/12/19 09:37:28;;;;;;;15.38;6.95;;;;;;;4.21;67.53;98143.25;4878532;28;20358;-79
2023/12/19 09:39:53;;;;;;;18.73;8.13;;;;;;;4.21;67.41;98143.25;4921732;28;20224;-79
2023/12/19 09:42:19;;;;;;;14.98;7.72;;;;;;;4.31;67.79;98136.81;4904372;28;20505;-78
2023/12/19 09:44:45;;;;;;;13.32;7.00;;;;;;;4.25;67.63;98134.97;4899381;28;20216;-82
2023/12/19 09:47:14;;;;;;;13.90;6.93;;;;;;;4.26;67.22;98130.63;4915782;28;20281;-80
2023/12/19 09:49:40;;;;;;;13.32;7.45;;;;;;;4.39;66.82;98145.47;4927319;28;20382;-78
2023/12/19 09:52:08;;;;;;;13.35;6.82;;;;;;;4.30;67.59;98132.66;4905602;28;20680;-79
2023/12/19 09:54:35;;;;;;;14.43;6.90;;;;;;;4.52;66.48;98130.13;4903067;28;20479;-80
2023/12/19 09:57:01;;;;;;;16.20;7.55;;;;;;;4.19;67.66;98124.59;4903982;28;20425;-79
2023/12/19 09:59:27;;;;;;;12.60;6.35;;;;;;;4.29;67.59;98105.28;4911651;28;20189;-79
2023/12/19 10:01:54;;;;;;;15.18;7.90;;;;;;;4.32;67.63;98111.84;4868526;28;20232;-80
2023/12/19 10:04:19;;;;;;;15.15;7.32;;;;;;;4.46;66.54;98111.03;4923943;28;20299;-79
2023/12/19 10:06:55;;;;;;;13.48;7.05;;;;;;;4.55;67.18;98109.13;4908484;28;20273;-79
2023/12/19 10:09:22;;;;;;;14.52;7.85;;;;;;;4.28;67.36;98092.56;4896252;28;20530;-79
2023/12/19 10:12:02;;;;;;;15.13;7.55;;;;;;;4.59;67.14;98094.91;4912847;28;20278;-79
2023/12/19 10:14:28;;;;;;;13.20;6.68;;;;;;;4.45;67.08;98088.78;4929844;28;20081;-79
2023/12/19 10:16:54;;;;;;;14.60;6.97;;;;;;;4.50;67.15;98090.81;4945359;28;20096;-79
2023/12/19 10:19:28;;;;;;;13.75;7.20;;;;;;;4.50;66.75;98081.28;4898818;28;20562;-79
2023/12/19 10:22:08;;;;;;;11.82;6.60;;;;;;;4.61;67.03;98082.63;4928840;28;20761;-82
2023/12/19 10:24:34;;;;;;;13.23;6.80;;;;;;;4.47;66.85;98071.38;4911710;28;20116;-79
2023/12/19 10:27:05;;;;;;;14.77;7.20;;;;;;;4.71;66.91;98071.97;4890183;28;20170;-79
2023/12/19 10:29:38;;;;;;;13.43;6.75;;;;;;;4.62;67.61;98066.13;4879375;28;20196;-79
2023/12/19 10:32:19;;;;;;;13.18;7.15;;;;;;;4.68;66.36;98062.84;4879753;28;20031;-79
2023/12/19 10:34:46;;;;;;;13.70;7.10;;;;;;;4.61;66.82;98048.25;4900676;28;20247;-79
2023/12/19 10:37:13;;;;;;;13.00;6.68;;;;;;;4.79;66.81;98058.16;4884490;28;20167;-79
2023/12/19 10:39:40;;;;;;;15.95;7.78;;;;;;;4.56;66.89;98048.03;4902587;28;20042;-79
2023/12/19 10:42:07;;;;;;;15.07;7.53;;;;;;;4.46;67.85;98032.88;4908401;28;20578;-78
2023/12/19 10:44:32;;;;;;;13.07;7.50;;;;;;;4.62;67.63;98036.97;4902238;28;20744;-78
2023/12/19 10:47:06;;;;;;;15.98;7.25;;;;;;;4.82;67.25;98024.25;4899481;28;20300;-79
2023/12/19 10:49:31;;;;;;;14.93;7.28;;;;;;;4.73;67.34;98022.78;4902428;28;20260;-78
2023/12/19 10:51:58;;;;;;;12.48;6.60;;;;;;;4.73;66.72;98023.59;4901391;28;20195;-79
2023/12/19 10:54:25;;;;;;;12.65;6.47;;;;;;;4.65;68.11;98015.97;4898200;28;20562;-79
2023/12/19 10:57:16;;;;;;;15.85;7.80;;;;;;;4.83;66.89;98010.34;4932807;28;20675;-79
2023/12/19 10:59:54;;;;;;;16.63;6.38;;;;;;;4.74;67.42;98006.31;4919069;28;20280;-78
2023/12/19 11:02:47;;;;;;;13.95;6.43;;;;;;;4.58;67.31;98003.03;4928425;28;20357;-79
2023/12/19 11:05:23;;;;;;;9.20;5.95;;;;;;;4.50;67.89;97997.97;4920130;28;20236;-79
2023/12/19 11:07:57;;;;;;;12.98;5.95;;;;;;;4.60;68.17;97992.53;4926912;28;20261;-79
2023/12/19 11:10:24;;;;;;;13.27;6.25;;;;;;;4.77;67.12;97987.91;4910955;28;20163;-79
2023/12/19 11:12:50;;;;;;;12.32;6.20;;;;;;;4.72;66.96;97987.66;4920576;28;20253;-78
2023/12/19 11:15:16;;;;;;;14.10;6.03;;;;;;;4.70;67.38;97977.53;4892661;28;20285;-79
2023/12/19 11:18:04;;;;;;;13.40;6.65;;;;;;;4.81;67.35;97983.94;4914246;28;20370;-79
2023/12/19 11:20:41;;;;;;;12.45;6.15;;;;;;;4.57;67.42;97987.72;4903202;28;20532;-77
2023/12/19 11:23:31;;;;;;;14.13;6.00;;;;;;;4.84;67.01;97981.00;4892281;28;20182;-79
2023/12/19 11:26:29;;;;;;;10.82;5.90;;;;;;;4.97;67.07;97983.69;4921770;28;20633;-78
2023/12/19 11:28:54;;;;;;;10.35;5.55;;;;;;;4.81;67.48;97978.78;4907756;28;20875;-79